Time;durP1;ratioP1;P1;durP2;ratioP2;P2;SDS_P1;SDS_P2;PMS_P1;PMS_P2;Temp;Humidity;BMP_temperature;BMP_pressure;BME280_temperature;BME280_humidity;BME280_pressure;Samples;Min_cycle;Max_cycle;Signal;HPM_P1;HPM_P2
2022/01/24 00:01:56;;;;;;;7.65;4.47;;;;;;;-4.90;59.25;100873.38;4289605;33;34376;-67
2022/01/24 00:04:25;;;;;;;6.85;3.92;;;;;;;-4.24;55.17;100872.28;4302035;33;34857;-67
2022/01/24 00:06:53;;;;;;;12.68;5.90;;;;;;;-4.87;57.28;100875.22;4303994;33;34563;-68
2022/01/24 00:09:21;;;;;;;11.00;5.75;;;;;;;-6.50;66.07;100889.59;4303048;33;34366;-67
2022/01/24 00:14:54;;;;;;;7.53;4.97;;;;;;;-4.98;59.34;100889.66;4302439;33;34815;-68
2022/01/24 00:28:22;;;;;;;13.40;6.85;;;;;;;-6.27;62.76;100915.97;4295609;33;35037;-67
2022/01/24 00:30:50;;;;;;;13.02;6.00;;;;;;;-6.26;64.61;100914.31;4294787;33;34419;-67
2022/01/24 00:33:19;;;;;;;5.07;4.22;;;;;;;-6.87;66.71;100916.97;4288930;33;33493;-67
2022/01/24 00:35:50;;;;;;;14.10;5.82;;;;;;;-6.52;64.72;100920.66;4303764;33;34704;-67
2022/01/24 00:38:18;;;;;;;8.27;4.70;;;;;;;-5.85;60.19;100921.81;4305194;33;35356;-67
2022/01/24 00:40:48;;;;;;;5.82;4.60;;;;;;;-5.49;59.10;100916.22;4304595;33;35165;-67
2022/01/24 00:43:25;;;;;;;14.85;5.12;;;;;;;-5.69;58.46;100921.37;4304841;33;34209;-67
2022/01/24 00:54:42;;;;;;;8.10;5.35;;;;;;;-6.29;62.07;100925.97;4304879;33;34320;-67
2022/01/24 00:56:51;;;;;;;6.97;4.20;;;;;;;-6.90;67.27;100926.84;4302314;33;34050;-67
2022/01/24 00:59:20;;;;;;;5.50;3.65;;;;;;;-6.35;64.84;100924.59;4292013;33;35927;-67
2022/01/24 01:01:48;;;;;;;11.48;6.60;;;;;;;-6.91;64.76;100920.00;4292501;33;34891;-67
2022/01/24 01:04:17;;;;;;;12.40;5.22;;;;;;;-7.07;62.28;100922.00;4304749;33;34302;-67
2022/01/24 01:06:48;;;;;;;21.20;5.80;;;;;;;-6.73;64.04;100923.19;4305498;33;34710;-68
2022/01/24 01:20:26;;;;;;;12.48;4.05;;;;;;;-6.39;65.65;100908.22;4305377;33;35933;-67
2022/01/24 01:22:55;;;;;;;8.80;5.00;;;;;;;-5.75;59.21;100907.44;4301886;33;34386;-67
2022/01/24 01:25:23;;;;;;;7.30;5.22;;;;;;;-8.33;67.15;100911.91;4305431;33;33481;-67
2022/01/24 01:27:53;;;;;;;5.12;3.00;;;;;;;-7.81;69.47;100906.44;4304631;33;34051;-67
2022/01/24 01:30:33;;;;;;;6.65;3.97;;;;;;;-6.86;62.93;100905.19;4305284;33;34342;-67
2022/01/24 01:33:16;;;;;;;4.12;3.08;;;;;;;-7.44;63.12;100917.22;4292837;33;34570;-67
2022/01/24 01:36:10;;;;;;;7.60;4.80;;;;;;;-6.42;58.60;100913.06;4305333;33;33352;-67
2022/01/24 01:39:05;;;;;;;3.80;3.22;;;;;;;-7.46;64.94;100918.72;4304376;33;34732;-67
2022/01/24 01:53:21;;;;;;;5.47;4.40;;;;;;;-8.37;71.34;100907.34;4303390;33;35841;-67
2022/01/24 01:55:47;;;;;;;5.32;3.30;;;;;;;-7.16;66.17;100909.44;4293661;33;34466;-67
2022/01/24 01:58:18;;;;;;;6.82;4.68;;;;;;;-7.19;62.16;100906.66;4303668;33;33371;-67
2022/01/24 02:00:49;;;;;;;8.75;4.55;;;;;;;-7.54;66.49;100906.16;4303223;33;34044;-67
2022/01/24 02:03:18;;;;;;;6.05;3.42;;;;;;;-8.04;67.66;100916.16;4303105;33;34240;-67
2022/01/24 02:05:46;;;;;;;6.25;4.20;;;;;;;-7.79;66.47;100915.81;4305100;33;34566;-67
2022/01/24 02:08:16;;;;;;;12.70;4.20;;;;;;;-6.73;61.18;100907.09;4304292;33;34548;-67
2022/01/24 02:10:44;;;;;;;3.60;2.80;;;;;;;-7.38;63.53;100905.84;4305021;33;34163;-67
2022/01/24 02:13:12;;;;;;;4.20;3.37;;;;;;;-6.73;57.67;100915.59;4291170;33;35126;-67
2022/01/24 02:16:10;;;;;;;11.27;5.20;;;;;;;-7.60;60.33;100926.75;4305070;33;35244;-67
2022/01/24 02:18:48;;;;;;;6.70;5.05;;;;;;;-6.92;59.01;100923.31;4304124;33;34319;-67
2022/01/24 02:21:28;;;;;;;6.65;4.68;;;;;;;-8.25;63.71;100932.84;4293054;33;33955;-67
2022/01/24 02:23:59;;;;;;;10.18;4.93;;;;;;;-7.24;63.17;100928.16;4304023;33;35004;-67
2022/01/24 02:26:28;;;;;;;6.40;4.18;;;;;;;-6.45;59.80;100928.00;4305342;33;33695;-67
2022/01/24 02:31:47;;;;;;;6.15;3.65;;;;;;;-6.99;61.58;100920.09;4304092;33;34010;-67
2022/01/24 02:34:28;;;;;;;3.62;3.33;;;;;;;-6.57;59.40;100927.00;4304264;33;35015;-67
2022/01/24 02:37:02;;;;;;;13.90;2.90;;;;;;;-6.68;58.20;100931.19;4304927;33;35355;-67
2022/01/24 02:50:50;;;;;;;4.82;3.47;;;;;;;-7.51;65.18;100927.56;4304076;33;33454;-67
2022/01/24 02:53:19;;;;;;;9.55;3.50;;;;;;;-7.65;67.76;100936.47;4304086;33;34751;-67
2022/01/24 02:55:48;;;;;;;8.40;5.37;;;;;;;-6.95;60.19;100929.72;4289296;33;35059;-67
2022/01/24 02:58:17;;;;;;;7.65;3.95;;;;;;;-8.15;62.24;100930.38;4313096;33;34301;-67
2022/01/24 03:00:46;;;;;;;6.60;4.93;;;;;;;-7.95;63.09;100932.16;4303623;33;34579;-67
2022/01/24 03:03:16;;;;;;;4.25;2.95;;;;;;;-8.39;65.52;100932.47;4290928;33;34789;-67
2022/01/24 03:05:44;;;;;;;6.50;3.95;;;;;;;-8.43;67.82;100935.53;4315372;33;35021;-67
2022/01/24 03:08:14;;;;;;;4.35;2.85;;;;;;;-7.39;59.99;100924.28;4303932;33;34531;-67
2022/01/24 03:10:45;;;;;;;4.55;3.30;;;;;;;-7.07;56.17;100930.47;4304684;33;33480;-67
2022/01/24 03:13:29;;;;;;;5.47;4.20;;;;;;;-7.17;57.80;100927.03;4303253;33;33899;-67
2022/01/24 03:15:59;;;;;;;5.90;4.75;;;;;;;-8.06;60.47;100927.78;4290234;33;35089;-67
2022/01/24 03:18:28;;;;;;;6.93;4.62;;;;;;;-7.25;57.78;100934.00;4290159;33;35040;-67
2022/01/24 03:20:56;;;;;;;4.00;3.55;;;;;;;-6.95;59.03;100930.62;4304627;33;34282;-67
2022/01/24 03:23:27;;;;;;;5.03;3.85;;;;;;;-6.92;59.53;100937.59;4314230;33;35628;-67
2022/01/24 03:25:55;;;;;;;4.28;3.45;;;;;;;-7.83;63.69;100948.41;4291560;33;35553;-67
2022/01/24 03:28:24;;;;;;;3.83;3.53;;;;;;;-7.88;60.76;100944.56;4302976;33;34520;-67
2022/01/24 03:30:54;;;;;;;5.22;3.72;;;;;;;-8.11;60.44;100949.25;4291516;33;33198;-67
2022/01/24 03:33:22;;;;;;;10.05;4.30;;;;;;;-7.86;58.28;100957.34;4290783;33;34069;-67
2022/01/24 03:35:51;;;;;;;9.93;4.45;;;;;;;-6.98;57.08;100957.34;4304357;33;34900;-68
2022/01/24 03:38:20;;;;;;;5.37;4.05;;;;;;;-6.99;56.85;100950.50;4303747;33;34418;-67
2022/01/24 03:40:48;;;;;;;4.60;3.05;;;;;;;-7.02;58.45;100961.25;4291002;33;33704;-67
2022/01/24 03:43:17;;;;;;;2.95;2.67;;;;;;;-7.38;59.06;100964.91;4303633;33;34048;-67
2022/01/24 03:45:58;;;;;;;6.78;4.00;;;;;;;-8.59;64.76;100970.25;4304217;33;35146;-67
2022/01/24 03:48:37;;;;;;;2.53;2.33;;;;;;;-8.30;65.72;100956.81;4303571;33;35208;-67
2022/01/24 03:51:06;;;;;;;4.95;3.33;;;;;;;-7.39;60.74;100957.19;4289796;33;34310;-67
2022/01/24 03:53:34;;;;;;;3.62;3.30;;;;;;;-8.82;62.43;100968.13;4277513;33;34132;-67
2022/01/24 03:56:03;;;;;;;6.40;4.18;;;;;;;-7.35;60.58;100959.25;4304104;33;34933;-67
2022/01/24 03:58:32;;;;;;;4.95;2.90;;;;;;;-8.35;65.10;100961.44;4290318;33;34628;-67
2022/01/24 04:01:02;;;;;;;5.50;2.17;;;;;;;-8.32;69.85;100951.59;4303256;33;34224;-67
2022/01/24 04:03:31;;;;;;;4.80;3.55;;;;;;;-7.23;61.70;100955.25;4303376;33;33235;-67
2022/01/24 04:05:59;;;;;;;7.18;3.35;;;;;;;-7.21;58.91;100962.97;4304097;33;34895;-67
2022/01/24 04:08:27;;;;;;;3.58;2.92;;;;;;;-7.07;56.70;100957.44;4303420;33;34341;-67
2022/01/24 04:10:56;;;;;;;5.75;3.33;;;;;;;-8.66;65.16;100961.22;4291868;33;33586;-67
2022/01/24 04:18:37;;;;;;;6.07;3.87;;;;;;;-8.55;63.80;100977.34;4303696;33;35012;-67
2022/01/24 04:24:10;;;;;;;4.70;4.00;;;;;;;-8.24;69.88;100983.50;4303508;33;34745;-68
2022/01/24 04:26:38;;;;;;;8.93;3.80;;;;;;;-7.95;68.88;100981.81;4305545;33;35132;-69
2022/01/24 04:29:08;;;;;;;6.50;4.28;;;;;;;-7.19;61.88;100972.47;4304790;33;35219;-69
2022/01/24 04:31:36;;;;;;;15.45;3.33;;;;;;;-6.97;58.48;100972.66;4303384;33;34385;-68
2022/01/24 04:34:05;;;;;;;9.35;3.47;;;;;;;-7.85;58.23;100976.84;4291814;33;33903;-71
2022/01/24 04:36:33;;;;;;;11.35;5.87;;;;;;;-7.44;56.91;100983.00;4305271;33;34935;-67
2022/01/24 04:39:03;;;;;;;7.62;5.18;;;;;;;-7.77;58.48;100985.09;4305056;33;34270;-67
2022/01/24 04:41:36;;;;;;;8.82;5.65;;;;;;;-8.39;63.30;100992.22;4305530;33;33653;-66
2022/01/24 04:46:59;;;;;;;;;;;;;;;-9.16;74.51;100997.78;4304955;33;35070;-66
2022/01/24 04:52:46;;;;;;;3.00;2.78;;;;;;;-7.30;59.61;100998.50;4292296;33;33649;-67
2022/01/24 04:55:15;;;;;;;5.28;4.05;;;;;;;-7.21;58.69;100989.16;4303928;33;34061;-66
2022/01/24 04:57:46;;;;;;;2.45;2.25;;;;;;;-8.54;67.87;100994.28;4303040;33;35860;-70
2022/01/24 05:00:14;;;;;;;3.23;2.97;;;;;;;-7.76;60.99;100994.44;4304644;33;34716;-70
2022/01/24 05:02:42;;;;;;;3.00;2.80;;;;;;;-8.01;59.58;101002.41;4314624;33;34268;-71
2022/01/24 05:05:16;;;;;;;9.43;4.32;;;;;;;-8.84;68.01;101005.84;4304476;33;34060;-70
2022/01/24 05:07:44;;;;;;;5.80;3.37;;;;;;;-9.32;67.69;101017.25;4305256;33;35563;-70
2022/01/24 05:10:23;;;;;;;4.57;3.47;;;;;;;-8.29;63.82;101020.09;4314445;33;34559;-70
2022/01/24 05:23:43;;;;;;;2.93;2.73;;;;;;;-7.67;59.72;101021.44;4304729;33;33582;-66
2022/01/24 05:26:11;;;;;;;6.55;3.70;;;;;;;-7.62;56.97;101024.41;4304485;33;33972;-69
2022/01/24 05:28:40;;;;;;;4.30;3.50;;;;;;;-8.75;66.47;101022.59;4305043;33;35918;-65
2022/01/24 05:31:08;;;;;;;9.50;4.07;;;;;;;-8.45;64.77;101022.91;4304359;33;34431;-66
2022/01/24 05:33:37;;;;;;;5.10;3.53;;;;;;;-8.97;64.47;101025.62;4305141;33;33678;-66
2022/01/24 05:36:05;;;;;;;4.63;3.23;;;;;;;-8.32;61.00;101029.94;4304395;33;34689;-65
2022/01/24 05:38:34;;;;;;;6.03;4.30;;;;;;;-8.67;65.56;101042.75;4304241;33;35913;-65
2022/01/24 05:41:02;;;;;;;6.40;2.67;;;;;;;-9.23;68.52;101038.31;4304295;33;34527;-66
2022/01/24 05:43:30;;;;;;;10.25;5.85;;;;;;;-9.32;68.06;101043.37;4315886;33;33391;-66
2022/01/24 05:45:59;;;;;;;7.97;4.97;;;;;;;-9.31;67.46;101031.66;4304278;33;33880;-65
2022/01/24 05:48:29;;;;;;;8.07;3.60;;;;;;;-9.48;62.09;101035.97;4303907;33;35139;-67
2022/01/24 05:51:00;;;;;;;6.17;3.03;;;;;;;-8.47;61.85;101038.66;4297104;33;33328;-67
2022/01/24 05:53:32;;;;;;;5.03;4.03;;;;;;;-8.13;62.88;101044.25;4304917;33;33331;-67
2022/01/24 05:56:02;;;;;;;4.23;3.50;;;;;;;-8.61;63.98;101044.94;4304344;33;34935;-66
2022/01/24 05:58:31;;;;;;;4.22;2.78;;;;;;;-9.22;66.94;101050.19;4304323;33;36027;-67
2022/01/24 06:01:03;;;;;;;7.33;4.37;;;;;;;-7.97;60.86;101046.53;4304561;33;33547;-67
2022/01/24 06:03:33;;;;;;;6.53;3.30;;;;;;;-7.98;63.38;101048.16;4304517;33;32459;-68
2022/01/24 06:06:03;;;;;;;7.00;5.30;;;;;;;-8.62;66.50;101049.12;4291516;33;33179;-66
2022/01/24 06:08:32;;;;;;;8.40;4.03;;;;;;;-8.32;63.70;101059.38;4301818;33;34073;-66
2022/01/24 06:11:00;;;;;;;5.90;4.10;;;;;;;-8.29;63.99;101055.47;4304503;33;35043;-67
2022/01/24 06:13:29;;;;;;;6.10;4.50;;;;;;;-8.52;63.20;101055.00;4304522;33;33384;-66
2022/01/24 06:15:58;;;;;;;3.05;2.40;;;;;;;-9.34;62.70;101058.34;4304538;33;34689;-66
2022/01/24 06:18:27;;;;;;;5.47;3.83;;;;;;;-8.45;61.29;101067.47;4304458;33;36132;-67
2022/01/24 06:20:57;;;;;;;11.10;4.22;;;;;;;-8.57;61.29;101066.34;4304357;33;36749;-66
2022/01/24 06:23:27;;;;;;;7.43;4.62;;;;;;;-8.36;64.78;101072.44;4290183;33;32583;-66
2022/01/24 06:25:55;;;;;;;4.87;3.05;;;;;;;-8.04;65.16;101071.22;4303720;33;33848;-67
2022/01/24 06:28:23;;;;;;;5.72;4.35;;;;;;;-8.18;66.38;101078.31;4290279;33;35984;-66
2022/01/24 06:30:53;;;;;;;10.00;4.57;;;;;;;-8.48;63.18;101085.75;4303129;33;34507;-71
2022/01/24 06:33:21;;;;;;;11.50;3.55;;;;;;;-8.09;61.42;101089.25;4304306;33;33588;-67
2022/01/24 06:35:49;;;;;;;7.45;3.05;;;;;;;-7.55;58.44;101086.50;4303832;33;33969;-67
2022/01/24 06:38:18;;;;;;;8.98;4.62;;;;;;;-7.57;59.95;101090.56;4304994;33;35381;-67
2022/01/24 06:40:46;;;;;;;7.53;4.00;;;;;;;-7.88;62.77;101092.84;4293724;33;34624;-66
2022/01/24 06:43:14;;;;;;;7.30;3.97;;;;;;;-6.79;59.18;101087.31;4291180;33;33328;-68
2022/01/24 06:45:43;;;;;;;9.15;4.00;;;;;;;-7.33;59.95;101094.37;4303909;33;33989;-67
2022/01/24 06:48:11;;;;;;;8.95;4.20;;;;;;;-7.46;61.34;101094.94;4304567;33;35217;-67
2022/01/24 06:50:39;;;;;;;8.38;4.45;;;;;;;-7.60;64.15;101096.25;4305762;33;35305;-67
2022/01/24 06:53:08;;;;;;;9.52;4.68;;;;;;;-7.34;61.40;101112.84;4306559;33;33642;-68
2022/01/24 06:55:36;;;;;;;4.32;2.97;;;;;;;-6.95;59.11;101106.97;4290970;33;33917;-68
2022/01/24 06:58:04;;;;;;;8.35;4.93;;;;;;;-7.30;61.92;101109.84;4303942;33;35254;-67
2022/01/24 07:00:32;;;;;;;10.18;3.03;;;;;;;-6.77;59.17;101115.31;4302998;33;34325;-67
2022/01/24 07:03:00;;;;;;;4.85;3.47;;;;;;;-7.47;63.17;101118.47;4303979;33;34486;-66
2022/01/24 07:05:31;;;;;;;5.53;3.75;;;;;;;-5.92;56.93;101115.72;4304009;33;33976;-67
2022/01/24 07:07:59;;;;;;;12.10;4.32;;;;;;;-5.90;55.93;101120.16;4291606;33;35036;-67
2022/01/24 07:10:28;;;;;;;8.48;5.37;;;;;;;-5.18;56.17;101121.78;4309362;33;35298;-66
2022/01/24 07:12:58;;;;;;;8.10;4.32;;;;;;;-4.59;56.61;101119.66;4294937;33;35010;-67
2022/01/24 07:15:33;;;;;;;6.93;4.55;;;;;;;-4.01;52.83;101123.28;4303459;33;34744;-67
2022/01/24 07:18:56;;;;;;;11.85;6.03;;;;;;;-3.01;50.89;101119.62;4304676;33;35895;-67
2022/01/24 07:20:50;;;;;;;4.70;3.12;;;;;;;-2.57;50.63;101119.38;4292825;33;35031;-68
2022/01/24 07:23:19;;;;;;;9.77;4.18;;;;;;;-1.43;47.68;101124.53;4304404;33;33439;-68
2022/01/24 07:25:53;;;;;;;12.55;5.32;;;;;;;-1.70;48.64;101126.16;4301891;33;33785;-68
2022/01/24 07:28:21;;;;;;;14.55;5.20;;;;;;;-2.04;51.62;101131.53;4304582;33;35900;-68
2022/01/24 07:30:49;;;;;;;11.48;5.65;;;;;;;-1.90;49.91;101143.56;4303617;33;34370;-67
2022/01/24 07:33:17;;;;;;;8.98;5.82;;;;;;;-1.41;48.57;101136.66;4303717;33;33434;-67
2022/01/24 07:35:46;;;;;;;11.48;4.95;;;;;;;-0.96;47.96;101137.88;4303549;33;34042;-67
2022/01/24 07:38:14;;;;;;;14.77;7.60;;;;;;;-2.99;53.64;101151.19;4304335;33;35795;-67
2022/01/24 07:40:47;;;;;;;11.43;5.28;;;;;;;-1.66;51.49;101144.34;4303627;33;34470;-68
2022/01/24 07:43:15;;;;;;;11.52;5.03;;;;;;;-2.21;53.90;101151.66;4304467;33;33357;-68
2022/01/24 07:45:46;;;;;;;12.68;5.47;;;;;;;-1.19;52.77;101159.37;4303128;33;34744;-70
2022/01/24 07:48:15;;;;;;;8.95;4.95;;;;;;;-1.53;53.43;101156.28;4291198;33;34380;-68
2022/01/24 07:50:46;;;;;;;7.72;4.22;;;;;;;-2.05;55.81;101163.81;4303305;33;34510;-67
2022/01/24 07:53:16;;;;;;;10.00;5.22;;;;;;;-1.49;53.56;101159.91;4303741;33;33455;-68
2022/01/24 07:56:05;;;;;;;9.80;6.53;;;;;;;-1.02;54.93;101168.16;4292527;33;33955;-68
2022/01/24 07:58:32;;;;;;;13.73;5.53;;;;;;;-1.30;54.81;101177.38;4302386;33;34839;-68
2022/01/24 08:01:00;;;;;;;11.68;5.47;;;;;;;-1.22;57.23;101176.19;4307365;33;34568;-69
2022/01/24 08:03:29;;;;;;;13.70;6.70;;;;;;;-0.41;56.05;101170.31;4309369;33;33728;-67
2022/01/24 08:05:58;;;;;;;12.68;7.10;;;;;;;0.16;53.75;101174.72;4308705;33;33939;-67
2022/01/24 08:08:26;;;;;;;14.25;5.80;;;;;;;0.61;51.14;101171.34;4304098;33;35768;-67
2022/01/24 08:10:54;;;;;;;11.75;6.05;;;;;;;1.13;50.87;101179.50;4302492;33;35194;-67
2022/01/24 08:13:22;;;;;;;16.27;7.18;;;;;;;1.60;48.75;101177.81;4304039;33;34273;-67
2022/01/24 08:15:50;;;;;;;13.90;6.12;;;;;;;2.64;47.38;101177.31;4303067;33;33828;-67
2022/01/24 08:18:19;;;;;;;16.50;9.32;;;;;;;2.34;47.97;101179.19;4298432;33;36012;-67
2022/01/24 08:20:47;;;;;;;16.27;7.87;;;;;;;2.81;46.30;101179.06;4305008;33;35260;-69
2022/01/24 08:23:17;;;;;;;11.70;6.07;;;;;;;2.82;44.36;101170.53;4306901;33;34219;-68
2022/01/24 08:25:46;;;;;;;14.70;8.05;;;;;;;4.02;42.06;101182.19;4293061;33;34057;-67
2022/01/24 08:28:14;;;;;;;10.13;5.53;;;;;;;5.06;39.38;101186.69;4314631;33;35025;-67
2022/01/24 08:30:42;;;;;;;13.88;6.22;;;;;;;4.30;41.91;101182.59;4302113;33;34509;-67
2022/01/24 08:33:10;;;;;;;10.70;5.70;;;;;;;3.34;41.51;101189.34;4302887;33;33511;-67
2022/01/24 08:35:42;;;;;;;12.75;7.53;;;;;;;3.88;42.18;101189.28;4304900;33;34824;-68
2022/01/24 08:38:10;;;;;;;12.95;6.85;;;;;;;4.82;39.83;101191.75;4312031;33;34956;-67
2022/01/24 08:40:40;;;;;;;12.37;6.10;;;;;;;4.06;40.38;101199.53;4312786;33;34565;-67
2022/01/24 08:43:07;;;;;;;12.40;7.25;;;;;;;4.21;40.68;101195.09;4310351;33;33427;-67
2022/01/24 08:48:11;;;;;;;10.93;5.97;;;;;;;4.21;39.66;101196.81;4301888;33;36015;-67
2022/01/24 08:50:40;;;;;;;12.70;6.22;;;;;;;3.66;40.04;101192.56;4302671;33;34200;-67
2022/01/24 08:53:09;;;;;;;16.83;7.97;;;;;;;3.97;40.31;101200.91;4290304;33;33651;-67
2022/01/24 08:55:39;;;;;;;15.18;7.45;;;;;;;5.32;38.40;101204.97;4302691;33;33932;-67
2022/01/24 08:58:13;;;;;;;16.42;7.47;;;;;;;5.06;38.44;101199.59;4304078;33;34994;-67
2022/01/24 09:00:46;;;;;;;12.85;6.72;;;;;;;3.33;40.20;101213.31;4302871;33;33746;-67
2022/01/24 09:03:14;;;;;;;28.00;14.07;;;;;;;5.06;39.51;101197.03;4304855;33;33366;-67
2022/01/24 09:05:42;;;;;;;21.30;8.98;;;;;;;5.58;36.45;101197.41;4304452;33;33933;-68
2022/01/24 09:08:10;;;;;;;15.52;6.68;;;;;;;7.43;33.75;101198.78;4305102;33;35016;-67
2022/01/24 09:10:39;;;;;;;12.15;6.05;;;;;;;8.42;32.59;101187.97;4304976;33;34600;-67
2022/01/24 09:13:08;;;;;;;16.52;7.60;;;;;;;10.03;29.40;101196.22;4305425;33;34384;-67
2022/01/24 09:15:36;;;;;;;14.45;6.05;;;;;;;10.90;26.91;101195.34;4304728;33;34737;-68
2022/01/24 09:18:04;;;;;;;12.98;6.43;;;;;;;7.68;30.49;101195.28;4305613;33;35012;-68
2022/01/24 09:20:34;;;;;;;7.97;4.10;;;;;;;7.56;31.51;101200.97;4300649;33;34379;-67
2022/01/24 09:23:02;;;;;;;8.60;4.35;;;;;;;8.08;28.45;101206.84;4278156;33;33580;-68
2022/01/24 09:25:31;;;;;;;7.12;3.87;;;;;;;8.86;26.81;101206.47;4293639;33;34044;-68
2022/01/24 09:27:59;;;;;;;9.00;4.05;;;;;;;9.43;26.61;101204.41;4304181;33;35090;-68
2022/01/24 09:30:27;;;;;;;10.35;4.75;;;;;;;7.64;28.63;101203.78;4304483;33;35177;-69
2022/01/24 09:32:55;;;;;;;8.45;5.28;;;;;;;7.35;29.38;101211.53;4305353;33;34434;-69
2022/01/24 09:35:27;;;;;;;8.35;4.20;;;;;;;8.19;28.14;101199.37;4291549;33;33849;-69
2022/01/24 09:37:56;;;;;;;7.85;4.18;;;;;;;7.97;27.71;101204.81;4303501;33;35089;-70
2022/01/24 09:40:25;;;;;;;9.35;4.78;;;;;;;7.11;29.27;101220.25;4291495;33;34502;-71
2022/01/24 09:42:53;;;;;;;11.12;5.53;;;;;;;7.14;29.12;101211.69;4305266;33;34367;-69
2022/01/24 09:45:21;;;;;;;9.30;4.62;;;;;;;8.07;28.26;101205.97;4304540;33;33718;-69
2022/01/24 09:47:50;;;;;;;8.45;3.92;;;;;;;7.93;28.01;101195.19;4305119;33;35163;-69
2022/01/24 09:50:20;;;;;;;6.60;3.95;;;;;;;8.43;27.58;101192.31;4304522;33;35219;-70
2022/01/24 09:52:48;;;;;;;7.82;3.40;;;;;;;8.02;28.18;101186.78;4305179;33;33590;-70
2022/01/24 09:55:20;;;;;;;9.55;3.62;;;;;;;8.40;26.85;101188.72;4303560;33;33809;-70
2022/01/24 09:57:48;;;;;;;5.90;2.90;;;;;;;9.19;25.41;101189.97;4292197;33;35085;-68
2022/01/24 10:00:23;;;;;;;7.55;3.37;;;;;;;8.87;25.13;101181.38;4303552;33;35209;-69
2022/01/24 10:02:52;;;;;;;7.33;3.97;;;;;;;8.84;25.57;101186.47;4305451;33;33409;-68
2022/01/24 10:05:38;;;;;;;9.45;4.75;;;;;;;8.42;26.18;101190.56;4293395;33;34806;-69
2022/01/24 10:08:27;;;;;;;6.20;3.55;;;;;;;10.14;24.45;101192.97;4294221;33;35885;-68
2022/01/24 10:10:58;;;;;;;8.65;4.07;;;;;;;10.00;24.53;101183.16;4302820;33;34353;-69
2022/01/24 10:19:11;;;;;;;8.18;4.70;;;;;;;11.90;23.44;101178.66;4291182;33;35707;-67
2022/01/24 10:22:00;;;;;;;9.17;4.90;;;;;;;11.97;23.06;101177.03;4304157;33;34213;-68
2022/01/24 10:24:35;;;;;;;7.40;4.40;;;;;;;12.43;22.99;101181.06;4306299;33;33238;-72
2022/01/24 10:27:17;;;;;;;7.25;4.40;;;;;;;11.08;23.71;101177.44;4304477;33;32812;-68
2022/01/24 10:30:03;;;;;;;9.98;4.53;;;;;;;11.24;23.19;101175.94;4301169;33;35478;-70
2022/01/24 10:33:24;;;;;;;7.53;4.15;;;;;;;11.60;23.00;101176.50;4295042;33;34210;-69
2022/01/24 10:36:41;;;;;;;8.10;4.37;;;;;;;14.37;20.46;101171.16;4307265;33;34582;-69
2022/01/24 10:42:32;;;;;;;12.15;4.72;;;;;;;13.55;21.92;101177.72;4297492;33;36051;-68
2022/01/24 10:45:11;;;;;;;11.38;4.80;;;;;;;11.57;23.47;101178.16;4315611;33;34654;-69
2022/01/24 10:47:45;;;;;;;8.40;4.95;;;;;;;11.27;23.62;101175.97;4313431;33;32015;-68
2022/01/24 10:50:25;;;;;;;11.68;4.43;;;;;;;10.91;24.08;101176.25;4304907;33;34862;-70
2022/01/24 10:52:56;;;;;;;7.57;4.18;;;;;;;12.83;22.32;101167.53;4290768;33;35184;-69
2022/01/24 10:55:29;;;;;;;9.27;4.73;;;;;;;12.44;23.16;101163.63;4292340;33;35105;-69
2022/01/24 10:57:59;;;;;;;10.48;5.90;;;;;;;13.17;22.46;101157.38;4289996;33;33248;-69
2022/01/24 11:00:28;;;;;;;11.73;7.47;;;;;;;14.51;20.71;101155.47;4304616;33;33806;-69
2022/01/24 11:03:03;;;;;;;9.57;4.70;;;;;;;12.02;22.33;101157.06;4303851;33;35116;-70
2022/01/24 11:05:39;;;;;;;7.12;3.85;;;;;;;15.36;19.40;101157.28;4312993;33;34643;-70
2022/01/24 11:08:13;;;;;;;7.47;4.28;;;;;;;14.08;19.26;101160.56;4304238;33;34352;-69
2022/01/24 11:10:42;;;;;;;9.93;4.60;;;;;;;12.71;20.73;101165.69;4304063;33;33974;-69
2022/01/24 11:13:12;;;;;;;9.68;5.10;;;;;;;10.81;23.80;101165.66;4291227;33;34962;-70
2022/01/24 11:15:57;;;;;;;9.32;5.30;;;;;;;12.12;23.71;101154.59;4303123;33;34580;-70
2022/01/24 11:18:46;;;;;;;9.52;5.55;;;;;;;13.25;22.33;101155.66;4296663;33;31936;-69
2022/01/24 11:21:20;;;;;;;16.70;8.52;;;;;;;14.45;20.32;101145.81;4302594;33;33933;-71
2022/01/24 11:23:49;;;;;;;9.75;5.87;;;;;;;16.32;18.64;101157.00;4290225;33;35079;-74
2022/01/24 11:26:19;;;;;;;8.32;4.55;;;;;;;15.20;19.53;101158.16;4298174;33;34425;-74
2022/01/24 11:28:50;;;;;;;11.27;4.18;;;;;;;14.22;20.21;101151.87;4289214;33;34475;-74
2022/01/24 11:31:23;;;;;;;7.30;4.00;;;;;;;13.59;20.04;101158.56;4277100;33;33158;-70
2022/01/24 11:34:16;;;;;;;8.32;4.22;;;;;;;14.81;20.00;101156.38;4289450;33;35056;-70
2022/01/24 11:36:46;;;;;;;10.10;5.10;;;;;;;12.48;22.46;101161.09;4287254;33;34236;-76
2022/01/24 11:39:21;;;;;;;8.45;4.22;;;;;;;12.31;21.33;101152.19;4289961;33;33524;-75
2022/01/24 11:41:50;;;;;;;11.52;5.65;;;;;;;13.33;21.47;101140.09;4288949;33;33954;-71
2022/01/24 11:44:21;;;;;;;7.57;4.80;;;;;;;13.17;21.53;101139.94;4289761;33;35044;-75
2022/01/24 11:46:56;;;;;;;7.45;4.72;;;;;;;11.21;24.11;101149.81;4287809;33;35256;-74
2022/01/24 11:49:27;;;;;;;7.30;3.87;;;;;;;11.53;22.42;101137.25;4289840;33;33307;-71
2022/01/24 11:52:07;;;;;;;14.32;8.95;;;;;;;13.16;21.32;101132.06;4288952;33;34668;-72
2022/01/24 11:54:51;;;;;;;12.52;7.32;;;;;;;13.28;21.43;101127.78;4310716;33;35872;-71
2022/01/24 11:57:23;;;;;;;8.63;4.97;;;;;;;14.67;20.63;101132.81;4288908;33;34449;-70
2022/01/24 12:00:01;;;;;;;10.63;5.30;;;;;;;14.25;19.85;101127.44;4289624;33;34048;-72
2022/01/24 12:02:51;;;;;;;8.40;4.82;;;;;;;11.72;22.80;101127.06;4288922;33;34022;-73
2022/01/24 12:05:41;;;;;;;8.88;5.18;;;;;;;12.46;22.42;101122.75;4312026;33;34913;-71
2022/01/24 12:08:41;;;;;;;7.85;4.35;;;;;;;12.22;22.46;101123.38;4289567;33;35344;-73
2022/01/24 12:11:19;;;;;;;9.95;4.80;;;;;;;10.97;24.84;101125.09;4287119;33;33583;-70
2022/01/24 12:14:00;;;;;;;8.07;4.45;;;;;;;12.16;23.04;101121.56;4289362;33;32932;-70
2022/01/24 12:16:35;;;;;;;9.55;4.70;;;;;;;9.05;25.92;101111.69;4287431;33;35937;-70
2022/01/24 12:19:05;;;;;;;8.02;4.45;;;;;;;10.64;24.80;101120.19;4300384;33;33707;-72
2022/01/24 12:21:36;;;;;;;11.12;4.97;;;;;;;11.26;23.79;101115.97;4288389;33;33651;-73
2022/01/24 12:24:12;;;;;;;6.65;4.15;;;;;;;9.61;25.72;101125.94;4298965;33;33784;-71
2022/01/24 12:26:52;;;;;;;10.68;4.97;;;;;;;10.21;24.89;101119.38;4290757;33;35044;-73
2022/01/24 12:29:23;;;;;;;9.18;4.85;;;;;;;7.74;28.70;101128.91;4301102;33;35130;-68
2022/01/24 12:31:54;;;;;;;11.38;5.28;;;;;;;8.11;27.56;101124.78;4289947;33;34271;-69
2022/01/24 12:34:37;;;;;;;8.93;4.55;;;;;;;6.59;28.92;101122.66;4302976;33;33243;-69
2022/01/24 12:37:11;;;;;;;11.38;5.45;;;;;;;8.57;29.32;101121.72;4304792;33;34838;-70
2022/01/24 12:40:31;;;;;;;11.70;6.18;;;;;;;6.95;31.97;101127.31;4304433;33;34347;-69
2022/01/24 12:44:09;;;;;;;9.45;4.95;;;;;;;6.31;31.86;101116.53;4293800;33;33776;-69
2022/01/24 12:46:55;;;;;;;12.98;5.72;;;;;;;6.26;31.53;101118.06;4302809;33;34731;-69
2022/01/24 12:49:26;;;;;;;9.55;4.60;;;;;;;4.81;34.91;101124.56;4305441;33;35100;-69
2022/01/24 12:51:54;;;;;;;10.15;5.03;;;;;;;4.97;35.12;101121.78;4291546;33;33639;-69
2022/01/24 12:54:29;;;;;;;9.80;4.50;;;;;;;5.66;33.98;101123.59;4304258;33;33589;-69
2022/01/24 12:57:02;;;;;;;10.80;4.80;;;;;;;4.49;35.96;101124.09;4304552;33;33829;-69
2022/01/24 12:59:32;;;;;;;9.18;4.57;;;;;;;4.05;37.13;101117.88;4304737;33;35053;-69
2022/01/24 13:02:03;;;;;;;10.75;5.68;;;;;;;6.12;32.86;101108.94;4290716;33;35241;-68
2022/01/24 13:04:34;;;;;;;10.48;5.40;;;;;;;3.48;37.19;101112.75;4292856;33;33541;-69
2022/01/24 13:07:02;;;;;;;10.85;5.22;;;;;;;5.23;34.65;101116.78;4302716;33;34063;-69
2022/01/24 13:09:31;;;;;;;8.55;4.43;;;;;;;4.25;36.20;101117.06;4304515;33;35055;-68
2022/01/24 13:12:04;;;;;;;12.85;5.65;;;;;;;5.64;33.36;101112.34;4304464;33;35496;-69
2022/01/24 13:22:59;;;;;;;10.60;4.55;;;;;;;4.25;36.05;101109.31;4292841;33;35315;-68
2022/01/24 13:25:36;;;;;;;9.82;4.37;;;;;;;4.60;35.28;101099.62;4292321;33;33377;-70
2022/01/24 13:28:09;;;;;;;10.65;4.97;;;;;;;4.71;34.99;101103.53;4304506;33;34076;-70
2022/01/24 13:30:57;;;;;;;9.32;4.85;;;;;;;4.99;34.97;101109.81;4304081;33;35949;-70
2022/01/24 13:33:27;;;;;;;10.00;4.47;;;;;;;4.46;36.94;101113.62;4291782;33;34572;-69